Time;durP1;ratioP1;P1;durP2;ratioP2;P2;SDS_P1;SDS_P2;PMS_P1;PMS_P2;Temp;Humidity;BMP_temperature;BMP_pressure;BME280_temperature;BME280_humidity;BME280_pressure;Samples;Min_cycle;Max_cycle;Signal;HPM_P1;HPM_P2
2022/10/01 00:01:27;;;;;;;6.30;4.17;;;12.80;99.90;;;;;;1952462;73;21042;-79
2022/10/01 00:04:19;;;;;;;6.00;4.12;;;12.70;99.90;;;;;;1952814;73;21072;-79
2022/10/01 00:07:13;;;;;;;6.33;5.17;;;12.70;99.90;;;;;;1952187;73;21050;-79
2022/10/01 00:10:03;;;;;;;9.75;5.62;;;12.70;99.90;;;;;;1951752;73;21047;-79
2022/10/01 00:12:54;;;;;;;10.20;6.45;;;12.70;99.90;;;;;;1951549;73;21145;-79
2022/10/01 00:15:46;;;;;;;10.82;6.62;;;12.70;99.90;;;;;;1951634;73;21087;-79
2022/10/01 00:18:38;;;;;;;7.92;6.03;;;12.70;99.90;;;;;;1969138;72;21526;-79
2022/10/01 00:21:32;;;;;;;8.08;6.50;;;12.70;99.90;;;;;;1951864;73;21149;-80
2022/10/01 00:24:23;;;;;;;7.97;6.95;;;12.70;99.90;;;;;;1951678;73;21102;-80
2022/10/01 00:27:14;;;;;;;7.62;5.92;;;12.80;99.90;;;;;;1951629;73;21050;-80
2022/10/01 00:30:09;;;;;;;8.58;5.45;;;12.80;99.90;;;;;;1952106;73;21062;-80
2022/10/01 00:33:00;;;;;;;5.83;4.05;;;12.90;99.90;;;;;;1950818;73;21091;-79
2022/10/01 00:35:54;;;;;;;5.12;4.00;;;12.90;99.90;;;;;;1974108;72;21570;-80
2022/10/01 00:38:47;;;;;;;5.72;3.90;;;12.80;99.90;;;;;;1952663;73;21127;-80
2022/10/01 00:41:38;;;;;;;6.58;3.75;;;12.80;99.90;;;;;;1952415;73;21174;-80
2022/10/01 00:44:33;;;;;;;5.60;4.08;;;12.80;99.90;;;;;;1968034;72;21138;-80
2022/10/01 00:47:29;;;;;;;4.55;3.70;;;12.80;99.90;;;;;;1944709;73;21128;-80
2022/10/01 00:50:23;;;;;;;5.78;3.60;;;12.80;99.90;;;;;;1942803;73;21579;-80
2022/10/01 00:53:15;;;;;;;5.05;3.02;;;12.70;99.90;;;;;;1942852;73;21090;-80
2022/10/01 00:56:07;;;;;;;6.45;3.20;;;12.70;99.90;;;;;;1942416;73;21057;-80
2022/10/01 00:58:59;;;;;;;6.83;3.72;;;12.70;99.90;;;;;;1942843;72;21043;-80
2022/10/01 01:01:51;;;;;;;5.25;4.17;;;12.60;99.90;;;;;;1942028;73;21047;-80
2022/10/01 01:04:43;;;;;;;4.17;3.47;;;12.60;99.90;;;;;;1949210;72;21545;-80
2022/10/01 01:07:39;;;;;;;5.22;3.27;;;12.60;99.90;;;;;;1954213;72;21165;-80
2022/10/01 01:10:33;;;;;;;3.58;3.22;;;12.60;99.90;;;;;;1957992;72;21129;-80
2022/10/01 01:13:28;;;;;;;4.17;2.87;;;12.50;99.90;;;;;;1943655;72;21096;-80
2022/10/01 01:16:33;;;;;;;5.67;3.52;;;12.50;99.90;;;;;;1942369;73;21583;-79
2022/10/01 01:19:31;;;;;;;4.70;3.45;;;12.30;99.90;;;;;;1785927;79;21196;-80
2022/10/01 01:22:23;;;;;;;;;;;12.30;99.90;;;;;;1769071;80;21211;-80
2022/10/01 01:25:17;;;;;;;3.75;3.33;;;12.30;99.90;;;;;;1779022;80;20160;-79
2022/10/01 01:28:12;;;;;;;6.22;3.62;;;12.30;99.90;;;;;;1795839;79;21085;-80
2022/10/01 01:31:07;;;;;;;5.60;3.52;;;12.20;99.90;;;;;;1780089;80;21194;-79
2022/10/01 01:34:00;;;;;;;4.45;3.55;;;12.20;99.90;;;;;;1805216;78;21064;-80
2022/10/01 01:36:55;;;;;;;4.05;3.40;;;12.20;99.90;;;;;;1792132;78;21117;-80
2022/10/01 01:42:36;;;;;;;4.50;3.85;;;12.20;99.90;;;;;;1955924;72;22137;-80
2022/10/01 01:48:12;;;;;;;6.22;3.95;;;12.20;99.90;;;;;;1953706;72;20241;-79
2022/10/01 01:51:07;;;;;;;9.58;3.77;;;12.20;99.90;;;;;;1901835;75;21137;-81
2022/10/01 01:53:58;;;;;;;5.97;3.90;;;12.20;99.90;;;;;;1897463;75;21432;-80
2022/10/01 01:56:51;;;;;;;6.62;3.80;;;12.10;99.90;;;;;;1906728;75;21114;-80
2022/10/01 01:59:43;;;;;;;5.17;3.40;;;12.10;99.90;;;;;;1906816;75;21054;-80
2022/10/01 02:02:38;;;;;;;4.42;3.20;;;12.00;99.90;;;;;;1904257;75;21168;-80
2022/10/01 02:05:32;;;;;;;7.12;3.42;;;12.00;99.90;;;;;;1899388;75;21551;-81
2022/10/01 02:08:33;;;;;;;4.40;3.42;;;11.90;99.90;;;;;;1895524;75;21043;-81
2022/10/01 02:11:28;;;;;;;4.65;3.37;;;11.90;99.90;;;;;;1887377;75;21135;-80
2022/10/01 02:14:23;;;;;;;4.17;3.10;;;11.90;99.90;;;;;;1884467;75;21077;-80
2022/10/01 02:17:18;;;;;;;3.77;3.10;;;11.90;99.90;;;;;;1884634;76;21215;-79
2022/10/01 02:20:12;;;;;;;4.22;3.22;;;11.80;99.90;;;;;;1900789;75;21091;-79
2022/10/01 02:23:08;;;;;;;3.72;2.90;;;11.80;99.90;;;;;;1917626;75;21095;-79
2022/10/01 02:26:03;;;;;;;3.02;2.72;;;11.70;99.90;;;;;;1910595;75;21059;-79
2022/10/01 02:31:41;;;;;;;5.58;2.77;;;11.50;99.90;;;;;;1954382;72;22154;-79
2022/10/01 02:34:33;;;;;;;4.25;2.80;;;11.50;99.90;;;;;;1924007;74;21085;-80
2022/10/01 02:37:26;;;;;;;3.62;2.83;;;11.50;99.90;;;;;;1896192;74;21169;-80
2022/10/01 02:40:21;;;;;;;3.55;2.98;;;11.40;99.90;;;;;;1897174;75;21118;-80
2022/10/01 02:43:15;;;;;;;3.72;2.87;;;11.30;99.90;;;;;;1880421;76;21530;-80
2022/10/01 02:46:10;;;;;;;7.08;2.98;;;11.30;99.90;;;;;;1901764;75;21051;-80
2022/10/01 02:49:03;;;;;;;4.78;3.10;;;11.30;99.90;;;;;;1897162;75;21053;-79
2022/10/01 02:51:58;;;;;;;5.05;3.22;;;11.20;99.90;;;;;;1917625;75;21106;-80
2022/10/01 02:54:52;;;;;;;3.52;2.80;;;11.20;99.90;;;;;;1895692;75;21168;-80
2022/10/01 02:57:44;;;;;;;6.72;3.22;;;11.20;99.90;;;;;;1896929;75;21124;-80
2022/10/01 03:00:35;;;;;;;3.60;2.85;;;11.20;99.90;;;;;;1884803;76;21110;-80
2022/10/01 03:03:26;;;;;;;3.67;2.60;;;11.20;99.90;;;;;;1907181;75;21101;-80
2022/10/01 03:06:17;;;;;;;7.03;3.52;;;11.20;99.90;;;;;;1889494;75;21055;-80
2022/10/01 03:09:09;;;;;;;3.85;2.42;;;11.10;99.90;;;;;;1892202;75;21138;-80
2022/10/01 03:12:01;;;;;;;3.72;2.52;;;11.00;99.90;;;;;;1900954;75;21088;-81
2022/10/01 03:14:52;;;;;;;3.40;2.35;;;10.90;99.90;;;;;;1884843;76;21055;-80
2022/10/01 03:17:43;;;;;;;3.00;2.30;;;11.00;99.90;;;;;;1884763;75;21153;-81
2022/10/01 03:20:35;;;;;;;2.40;2.10;;;11.00;99.90;;;;;;1906750;75;21574;-80
2022/10/01 03:23:26;;;;;;;3.37;2.10;;;11.00;99.90;;;;;;1884740;76;21175;-80
2022/10/01 03:26:17;;;;;;;3.15;2.60;;;10.90;99.90;;;;;;1897315;75;21055;-80
2022/10/01 03:29:09;;;;;;;2.80;2.50;;;10.80;99.90;;;;;;1895281;75;21111;-80
2022/10/01 03:32:00;;;;;;;3.05;2.02;;;10.70;99.90;;;;;;1902424;74;21079;-80
2022/10/01 03:34:52;;;;;;;3.00;2.50;;;10.60;99.90;;;;;;1908661;74;21148;-80
2022/10/01 03:37:43;;;;;;;2.80;2.12;;;10.50;99.90;;;;;;1907542;74;21046;-80
2022/10/01 03:40:37;;;;;;;4.35;2.10;;;10.50;99.90;;;;;;1905175;74;21132;-80
2022/10/01 03:43:28;;;;;;;2.52;2.30;;;10.50;99.90;;;;;;1904608;74;21095;-80
2022/10/01 03:46:19;;;;;;;5.62;2.40;;;10.50;99.90;;;;;;1906514;74;21339;-80
2022/10/01 03:49:10;;;;;;;2.83;2.17;;;10.60;99.90;;;;;;1907685;74;21589;-79
2022/10/01 03:52:02;;;;;;;4.28;2.50;;;10.60;99.90;;;;;;1904360;74;21644;-80
2022/10/01 03:54:53;;;;;;;3.35;1.85;;;10.60;99.90;;;;;;1904513;74;21058;-80
2022/10/01 03:57:44;;;;;;;4.37;2.10;;;10.70;99.90;;;;;;1906262;74;21105;-80
2022/10/01 04:00:35;;;;;;;3.85;1.80;;;10.70;99.90;;;;;;1893777;75;21064;-80
2022/10/01 04:03:26;;;;;;;2.87;1.92;;;10.80;99.90;;;;;;1893059;74;21114;-80
2022/10/01 04:06:18;;;;;;;3.98;2.40;;;10.80;99.90;;;;;;1897993;74;21126;-80
2022/10/01 04:09:09;;;;;;;2.60;1.90;;;10.70;99.90;;;;;;1905109;74;21103;-80
2022/10/01 04:12:01;;;;;;;3.42;2.00;;;10.70;99.90;;;;;;1909788;74;21051;-80
2022/10/01 04:14:53;;;;;;;4.08;2.17;;;10.80;99.90;;;;;;1904957;74;21180;-81
2022/10/01 04:17:44;;;;;;;2.67;2.12;;;10.80;99.90;;;;;;1898176;74;21125;-79
2022/10/01 04:20:38;;;;;;;4.22;2.55;;;10.80;99.90;;;;;;1915578;74;21084;-80
2022/10/01 04:23:29;;;;;;;5.85;2.58;;;10.80;99.90;;;;;;1912015;74;21537;-80
2022/10/01 04:26:20;;;;;;;4.42;2.33;;;10.90;99.90;;;;;;1906586;74;21118;-80
2022/10/01 04:29:12;;;;;;;3.02;2.15;;;10.90;99.90;;;;;;1904268;74;21051;-81
2022/10/01 04:32:03;;;;;;;4.35;2.27;;;10.90;99.90;;;;;;1894775;74;21189;-81
2022/10/01 04:34:55;;;;;;;3.17;2.58;;;10.90;99.90;;;;;;1890938;75;21057;-80
2022/10/01 04:37:46;;;;;;;2.45;2.05;;;10.80;99.90;;;;;;1897467;75;21098;-81
2022/10/01 04:40:38;;;;;;;2.62;1.90;;;10.60;99.90;;;;;;1894831;75;21167;-80
2022/10/01 04:43:30;;;;;;;1.98;1.70;;;10.50;99.90;;;;;;1894646;75;21164;-80
2022/10/01 04:46:21;;;;;;;3.37;1.80;;;10.40;99.90;;;;;;1897060;75;21063;-80
2022/10/01 04:49:13;;;;;;;2.50;2.30;;;10.40;99.90;;;;;;1898638;75;21051;-81
2022/10/01 04:52:05;;;;;;;3.42;2.77;;;10.50;99.90;;;;;;1885149;75;21059;-80
2022/10/01 04:54:57;;;;;;;2.15;1.95;;;10.60;99.90;;;;;;1905919;75;21165;-80
2022/10/01 04:57:48;;;;;;;2.62;2.10;;;10.60;99.90;;;;;;1905381;75;21574;-80
2022/10/01 05:00:42;;;;;;;5.60;2.50;;;10.70;99.90;;;;;;1900404;75;21051;-79
2022/10/01 05:03:34;;;;;;;3.22;2.15;;;10.70;99.90;;;;;;1870312;75;21056;-79
2022/10/01 05:06:26;;;;;;;4.08;2.50;;;10.80;99.90;;;;;;1905935;75;21594;-80
2022/10/01 05:09:17;;;;;;;2.65;2.22;;;10.80;99.90;;;;;;1885274;75;21047;-81
2022/10/01 05:12:09;;;;;;;2.92;2.42;;;10.80;99.90;;;;;;1898801;75;21158;-80
2022/10/01 05:15:01;;;;;;;6.00;2.22;;;10.80;99.90;;;;;;1896595;75;21176;-80
2022/10/01 05:17:54;;;;;;;4.15;2.35;;;10.90;99.90;;;;;;1895018;75;21180;-80
2022/10/01 05:20:45;;;;;;;2.98;2.10;;;10.90;99.90;;;;;;1894809;75;21087;-82
2022/10/01 05:23:37;;;;;;;3.12;2.33;;;11.00;99.90;;;;;;1898266;75;21129;-81
2022/10/01 05:26:30;;;;;;;2.22;2.02;;;11.00;99.90;;;;;;1897389;75;21063;-80
2022/10/01 05:29:22;;;;;;;2.50;1.90;;;11.10;99.90;;;;;;1916386;75;21094;-80
2022/10/01 05:32:14;;;;;;;2.33;1.80;;;11.10;99.90;;;;;;1894644;74;21167;-82
2022/10/01 05:35:07;;;;;;;2.85;1.98;;;11.10;99.90;;;;;;1896568;75;21157;-81
2022/10/01 05:38:01;;;;;;;3.87;2.15;;;11.00;99.90;;;;;;1898889;75;21112;-81
2022/10/01 05:40:52;;;;;;;3.65;1.80;;;11.00;99.90;;;;;;1894794;75;21518;-80
2022/10/01 05:43:44;;;;;;;2.30;2.08;;;10.90;99.90;;;;;;1894642;75;21091;-80
2022/10/01 05:46:35;;;;;;;5.83;2.20;;;10.90;99.90;;;;;;1894148;75;21043;-80
2022/10/01 05:49:27;;;;;;;2.83;2.05;;;10.90;99.90;;;;;;1899262;75;21127;-80
2022/10/01 05:52:18;;;;;;;4.00;2.20;;;10.90;99.90;;;;;;1896005;75;21067;-80
2022/10/01 05:55:10;;;;;;;2.60;1.90;;;11.00;99.90;;;;;;1894729;75;21159;-80
2022/10/01 05:58:04;;;;;;;1.77;1.50;;;11.10;99.90;;;;;;1894585;75;21118;-80
2022/10/01 06:00:57;;;;;;;2.12;1.87;;;11.10;99.90;;;;;;1897634;75;21069;-80
2022/10/01 06:03:51;;;;;;;3.45;1.95;;;11.20;99.90;;;;;;1883891;76;21139;-80
2022/10/01 06:06:42;;;;;;;2.72;2.05;;;11.20;99.90;;;;;;1893894;75;21131;-80
2022/10/01 06:09:33;;;;;;;3.40;2.00;;;11.30;99.90;;;;;;1894228;75;21169;-80
2022/10/01 06:12:25;;;;;;;3.92;1.77;;;11.40;99.90;;;;;;1906576;75;21089;-80
2022/10/01 06:15:17;;;;;;;3.90;1.95;;;11.50;99.90;;;;;;1907865;75;21055;-76
2022/10/01 06:18:11;;;;;;;2.95;2.02;;;11.50;99.90;;;;;;1894724;75;21125;-76
2022/10/01 06:21:02;;;;;;;3.30;2.50;;;11.50;99.90;;;;;;1894507;75;21131;-76
2022/10/01 06:23:53;;;;;;;2.10;1.90;;;11.60;99.90;;;;;;1894533;75;21059;-78
2022/10/01 06:26:44;;;;;;;3.58;2.05;;;11.70;99.90;;;;;;1899178;75;21601;-76
2022/10/01 06:29:35;;;;;;;3.05;2.37;;;11.70;99.90;;;;;;1896028;75;21160;-76
2022/10/01 06:32:26;;;;;;;2.95;2.35;;;11.70;99.90;;;;;;1896126;75;21059;-76
2022/10/01 06:35:19;;;;;;;3.62;2.67;;;11.80;99.90;;;;;;1874820;75;21161;-76
2022/10/01 06:38:11;;;;;;;4.20;2.87;;;11.80;99.90;;;;;;1886276;75;21123;-76
2022/10/01 06:41:04;;;;;;;2.58;2.30;;;11.80;99.90;;;;;;1896725;75;21191;-75
2022/10/01 06:43:55;;;;;;;4.22;2.40;;;11.90;99.90;;;;;;1893486;75;21138;-73
2022/10/01 06:46:46;;;;;;;5.47;3.02;;;11.90;99.90;;;;;;1871964;75;21552;-79
2022/10/01 06:49:38;;;;;;;4.80;2.80;;;12.00;99.90;;;;;;1883555;76;21098;-71
2022/10/01 06:55:38;;;;;;;4.12;2.40;;;12.10;99.90;;;;;;1849209;77;21131;-72
2022/10/01 06:58:30;;;;;;;6.75;2.55;;;12.10;99.90;;;;;;1829631;77;21081;-72
2022/10/01 07:01:22;;;;;;;7.12;2.60;;;12.10;99.90;;;;;;1826804;77;21212;-71
2022/10/01 07:04:13;;;;;;;3.20;2.70;;;12.20;99.90;;;;;;1887791;75;21542;-77
2022/10/01 07:07:06;;;;;;;7.22;2.90;;;12.20;99.90;;;;;;1892161;75;21087;-77
2022/10/01 07:09:58;;;;;;;2.98;2.67;;;12.30;99.90;;;;;;1893641;75;21051;-79
2022/10/01 07:12:50;;;;;;;3.30;2.80;;;12.20;99.90;;;;;;1894982;75;21203;-86
2022/10/01 07:15:42;;;;;;;4.17;2.37;;;12.20;99.90;;;;;;1895132;75;21058;-82
2022/10/01 07:18:33;;;;;;;3.95;2.92;;;12.20;99.90;;;;;;1900453;75;21106;-85
2022/10/01 07:21:24;;;;;;;4.03;2.52;;;12.20;99.90;;;;;;1904940;75;21570;-77
2022/10/01 07:24:16;;;;;;;5.85;3.15;;;12.20;99.90;;;;;;1909270;75;21058;-77
2022/10/01 07:27:08;;;;;;;3.20;2.90;;;12.20;99.90;;;;;;1896130;75;21578;-77
2022/10/01 07:30:00;;;;;;;2.83;2.52;;;12.20;99.90;;;;;;1879650;75;21184;-77
2022/10/01 07:32:53;;;;;;;3.10;2.80;;;12.20;99.90;;;;;;1885695;75;21160;-77
2022/10/01 07:38:22;;;;;;;4.72;2.90;;;12.20;99.90;;;;;;1940569;72;22562;-76
2022/10/01 07:41:16;;;;;;;3.58;2.90;;;12.20;99.90;;;;;;1897672;75;21104;-77
2022/10/01 07:44:07;;;;;;;6.75;3.25;;;12.30;99.90;;;;;;1908351;75;21050;-77
2022/10/01 07:46:59;;;;;;;8.28;3.15;;;12.30;99.90;;;;;;1899085;73;21095;-77
2022/10/01 07:49:50;;;;;;;4.30;3.17;;;12.50;99.90;;;;;;1917041;75;21069;-77
2022/10/01 07:52:42;;;;;;;4.85;3.12;;;12.50;99.90;;;;;;1904573;75;21048;-78
2022/10/01 07:58:13;;;;;;;5.30;4.00;;;12.80;99.90;;;;;;1941415;72;22123;-80
2022/10/01 08:01:05;;;;;;;6.30;4.67;;;12.90;99.90;;;;;;1888747;74;21102;-79
2022/10/01 08:03:57;;;;;;;4.97;4.10;;;12.90;99.90;;;;;;1884238;75;21098;-78
2022/10/01 08:09:30;;;;;;;4.30;3.50;;;13.00;99.90;;;;;;1943734;72;22112;-78
2022/10/01 08:15:01;;;;;;;6.85;4.97;;;13.00;99.90;;;;;;1953822;72;22135;-84
2022/10/01 08:17:52;;;;;;;7.78;4.30;;;13.00;99.90;;;;;;1886353;75;21146;-84
2022/10/01 08:20:44;;;;;;;5.42;3.70;;;13.00;99.90;;;;;;1892493;75;21097;-83
2022/10/01 08:23:35;;;;;;;9.33;4.85;;;13.10;99.90;;;;;;1898858;75;21035;-84
2022/10/01 08:26:27;;;;;;;3.85;3.20;;;13.30;99.90;;;;;;1901094;75;21395;-83
2022/10/01 08:29:19;;;;;;;5.45;3.33;;;13.40;99.90;;;;;;1890918;75;21198;-84
2022/10/01 08:32:11;;;;;;;5.50;2.75;;;13.50;99.90;;;;;;1896030;75;21516;-84
2022/10/01 08:35:03;;;;;;;3.10;2.80;;;13.60;99.90;;;;;;1891815;75;21156;-85
2022/10/01 08:37:55;;;;;;;4.95;2.80;;;13.60;99.90;;;;;;1898027;75;21109;-84
2022/10/01 08:40:50;;;;;;;6.87;3.30;;;13.60;99.90;;;;;;1894277;75;21088;-84
2022/10/01 08:43:42;;;;;;;5.28;3.45;;;13.70;99.90;;;;;;1902601;75;21110;-84
2022/10/01 08:46:36;;;;;;;6.47;3.70;;;13.80;99.90;;;;;;1911344;75;21204;-83
2022/10/01 08:54:57;;;;;;;5.33;3.40;;;14.20;99.90;;;;;;1971779;72;22233;-83
2022/10/01 09:00:44;;;;;;;4.83;3.77;;;14.20;99.90;;;;;;1950188;72;22237;-85
2022/10/01 09:03:35;;;;;;;5.83;5.00;;;14.20;99.90;;;;;;1934977;73;21116;-84
2022/10/01 09:09:21;;;;;;;8.63;5.17;;;14.30;99.90;;;;;;1951145;72;22126;-85
2022/10/01 09:12:21;;;;;;;5.22;4.70;;;14.30;99.90;;;;;;1891700;75;21114;-84
2022/10/01 09:15:20;;;;;;;7.87;4.22;;;14.30;99.90;;;;;;1886573;75;21110;-83
2022/10/01 09:20:58;;;;;;;7.60;5.12;;;14.30;99.90;;;;;;1922072;72;28202;-83
2022/10/01 09:23:58;;;;;;;9.50;4.40;;;14.40;99.90;;;;;;1903828;75;21036;-82
2022/10/01 09:26:50;;;;;;;7.85;4.50;;;14.40;99.90;;;;;;1904389;75;21051;-83
2022/10/01 09:29:46;;;;;;;10.58;5.22;;;14.30;99.90;;;;;;1916525;75;21047;-83
2022/10/01 09:35:33;;;;;;;10.78;7.58;;;14.30;99.90;;;;;;1942499;72;22117;-85
2022/10/01 09:38:28;;;;;;;10.15;8.33;;;14.30;99.90;;;;;;1925172;73;21070;-83
2022/10/01 09:43:58;;;;;;;8.90;6.35;;;14.30;99.90;;;;;;1941175;72;22139;-83
2022/10/01 09:46:50;;;;;;;8.28;6.47;;;14.30;99.90;;;;;;1930595;73;21188;-85
2022/10/01 09:49:44;;;;;;;6.65;4.90;;;14.30;99.90;;;;;;1917285;75;21125;-83
2022/10/01 09:52:38;;;;;;;4.65;4.15;;;14.20;99.90;;;;;;1929073;73;21127;-83
2022/10/01 09:55:33;;;;;;;13.32;6.45;;;14.10;99.90;;;;;;1923452;73;21099;-84
2022/10/01 09:58:27;;;;;;;6.55;4.42;;;14.10;99.90;;;;;;1924410;73;21058;-84
2022/10/01 10:03:58;;;;;;;7.47;4.20;;;14.10;99.90;;;;;;1930620;72;22691;-85
2022/10/01 10:06:52;;;;;;;7.45;4.60;;;14.20;99.90;;;;;;1904813;75;21580;-85
2022/10/01 10:09:44;;;;;;;5.40;4.78;;;14.30;99.90;;;;;;1896459;75;21106;-85
2022/10/01 10:12:37;;;;;;;8.08;4.60;;;14.10;99.90;;;;;;1892254;74;21610;-84
2022/10/01 10:18:16;;;;;;;5.75;5.08;;;14.20;99.90;;;;;;1944947;72;22173;-83
2022/10/01 10:21:15;;;;;;;8.85;5.45;;;14.30;99.90;;;;;;1901271;75;21160;-85
2022/10/01 10:24:10;;;;;;;12.00;9.38;;;14.30;99.90;;;;;;1885974;75;21098;-84
2022/10/01 10:29:41;;;;;;;9.45;6.40;;;14.20;99.90;;;;;;1937642;72;22204;-83
2022/10/01 10:32:32;;;;;;;8.20;6.92;;;14.30;99.90;;;;;;1905676;75;21114;-85
2022/10/01 10:35:27;;;;;;;8.85;7.05;;;14.40;99.90;;;;;;1892375;74;21130;-84
2022/10/01 10:38:19;;;;;;;6.25;5.55;;;14.50;99.90;;;;;;1882909;75;21053;-84
2022/10/01 10:43:50;;;;;;;5.62;5.03;;;14.50;99.90;;;;;;1945033;72;22165;-85
2022/10/01 10:46:43;;;;;;;5.70;5.12;;;14.50;99.90;;;;;;1933987;73;21110;-85
2022/10/01 10:49:39;;;;;;;5.58;4.67;;;14.50;99.90;;;;;;1916866;75;21122;-84
2022/10/01 10:52:35;;;;;;;5.35;4.20;;;14.40;99.90;;;;;;1923183;73;21683;-83
2022/10/01 10:58:13;;;;;;;7.83;5.25;;;14.50;99.90;;;;;;1946121;72;22583;-86
2022/10/01 11:01:04;;;;;;;;;;;14.30;99.90;;;;;;1908265;75;21120;-84
2022/10/01 11:06:37;;;;;;;6.58;5.50;;;14.20;99.90;;;;;;1946144;72;22208;-85
2022/10/01 11:09:32;;;;;;;6.22;4.83;;;14.20;99.90;;;;;;1917345;75;21154;-84
2022/10/01 11:18:31;;;;;;;7.10;6.35;;;14.50;99.90;;;;;;1930100;72;28189;-83
2022/10/01 11:21:38;;;;;;;5.75;5.12;;;14.70;99.90;;;;;;1900861;75;21071;-84
2022/10/01 11:24:41;;;;;;;6.65;4.70;;;14.80;99.90;;;;;;1913928;75;21439;-84
2022/10/01 11:27:39;;;;;;;5.83;4.15;;;14.80;99.90;;;;;;1889801;75;21095;-84
2022/10/01 11:30:34;;;;;;;6.33;5.03;;;14.80;99.90;;;;;;1889980;75;21125;-83
2022/10/01 11:36:08;;;;;;;5.42;4.92;;;14.70;99.90;;;;;;1932469;72;22123;-83
2022/10/01 11:39:03;;;;;;;7.12;5.17;;;14.70;99.90;;;;;;1903477;75;21141;-84
2022/10/01 11:41:57;;;;;;;6.20;4.85;;;14.60;99.90;;;;;;1903810;75;21160;-83
2022/10/01 11:44:51;;;;;;;6.75;5.05;;;14.60;99.90;;;;;;1895980;75;21168;-83
2022/10/01 11:47:50;;;;;;;7.95;5.17;;;14.60;99.90;;;;;;1907566;75;21046;-83
2022/10/01 11:50:45;;;;;;;8.48;5.70;;;14.60;99.90;;;;;;1907300;75;21063;-83
2022/10/01 11:53:43;;;;;;;5.83;4.95;;;14.60;99.90;;;;;;1906346;75;21099;-83
2022/10/01 11:59:48;;;;;;;7.20;5.55;;;14.50;99.90;;;;;;1882853;75;21183;-83
2022/10/01 12:02:45;;;;;;;5.75;5.15;;;14.50;99.90;;;;;;1892987;75;21179;-84
2022/10/01 12:05:37;;;;;;;8.25;5.30;;;14.40;99.90;;;;;;1904409;75;21160;-77
2022/10/01 12:08:32;;;;;;;7.80;5.22;;;14.40;99.90;;;;;;1896211;75;21115;-77
2022/10/01 12:14:05;;;;;;;5.33;4.83;;;14.40;99.90;;;;;;1940551;72;22121;-79
2022/10/01 12:17:01;;;;;;;5.10;4.60;;;14.40;99.90;;;;;;1896913;75;21133;-78
2022/10/01 12:19:56;;;;;;;4.75;3.45;;;14.40;99.90;;;;;;1891210;75;21595;-78
2022/10/01 12:22:48;;;;;;;4.85;3.83;;;14.40;99.90;;;;;;1898664;75;21067;-78
2022/10/01 12:25:45;;;;;;;4.67;4.03;;;14.40;99.90;;;;;;1909114;75;21153;-78
2022/10/01 12:28:40;;;;;;;5.50;4.00;;;14.30;99.90;;;;;;1898203;75;21152;-77
2022/10/01 12:31:34;;;;;;;3.22;2.47;;;14.50;99.90;;;;;;1905412;75;21511;-77
2022/10/01 12:34:33;;;;;;;3.35;2.95;;;14.50;99.90;;;;;;1886511;75;21179;-77
2022/10/01 12:40:16;;;;;;;2.83;2.42;;;14.60;99.90;;;;;;1948659;72;22278;-77
2022/10/01 12:43:36;;;;;;;3.10;1.95;;;14.60;99.90;;;;;;1906398;75;21051;-79
2022/10/01 12:49:21;;;;;;;1.80;1.40;;;14.70;99.90;;;;;;1944036;72;22407;-77
2022/10/01 12:52:12;;;;;;;2.10;1.20;;;14.70;99.90;;;;;;1914429;74;21167;-79
2022/10/01 12:57:54;;;;;;;1.40;1.30;;;14.50;99.90;;;;;;1935326;72;22161;-79
2022/10/01 13:00:49;;;;;;;2.95;1.22;;;14.40;99.90;;;;;;1897527;75;21244;-78
2022/10/01 13:04:06;;;;;;;1.80;1.40;;;14.40;99.90;;;;;;1885658;75;21111;-78
2022/10/01 13:09:52;;;;;;;1.25;0.90;;;14.40;99.90;;;;;;1941824;72;22111;-76
2022/10/01 13:12:55;;;;;;;2.10;1.10;;;14.40;99.90;;;;;;1911128;74;21051;-79
2022/10/01 13:15:50;;;;;;;1.50;1.10;;;14.40;99.90;;;;;;1894396;75;21522;-77
2022/10/01 13:18:48;;;;;;;1.92;1.10;;;14.40;99.90;;;;;;1896940;75;21188;-78
2022/10/01 13:21:49;;;;;;;1.32;1.20;;;14.50;99.90;;;;;;1888505;75;21113;-77
2022/10/01 13:24:44;;;;;;;1.95;1.22;;;14.50;99.90;;;;;;1898552;75;21171;-77
2022/10/01 13:30:19;;;;;;;2.83;1.22;;;14.50;99.90;;;;;;1970339;72;22707;-79
2022/10/01 13:33:25;;;;;;;1.40;1.30;;;14.60;99.90;;;;;;1921859;73;21062;-78
2022/10/01 13:36:18;;;;;;;2.05;1.40;;;14.60;99.90;;;;;;1928989;73;21142;-78
2022/10/01 13:39:21;;;;;;;1.75;1.15;;;14.50;99.90;;;;;;1926708;73;21089;-78
2022/10/01 13:42:22;;;;;;;1.30;1.17;;;14.40;99.90;;;;;;1917203;73;21192;-78
2022/10/01 13:45:26;;;;;;;1.98;1.50;;;14.40;99.90;;;;;;1917239;75;21609;-77
2022/10/01 13:48:22;;;;;;;3.80;1.42;;;14.30;99.90;;;;;;1917573;73;21720;-79
2022/10/01 13:51:15;;;;;;;1.72;1.22;;;14.20;99.90;;;;;;1917271;75;21141;-77
2022/10/01 13:54:10;;;;;;;4.85;1.25;;;14.10;99.90;;;;;;1917364;75;21093;-77
2022/10/01 13:57:11;;;;;;;1.80;1.30;;;14.00;99.90;;;;;;1917615;73;21494;-77
2022/10/01 14:00:09;;;;;;;1.35;1.00;;;14.00;99.90;;;;;;1917423;75;21086;-77
2022/10/01 14:03:07;;;;;;;2.17;1.00;;;13.90;99.90;;;;;;1916586;75;21114;-78
2022/10/01 14:08:43;;;;;;;1.90;1.22;;;14.00;99.90;;;;;;1933203;72;22711;-79
2022/10/01 14:17:29;;;;;;;1.35;1.25;;;13.90;99.90;;;;;;1894904;75;21250;-77
2022/10/01 14:23:07;;;;;;;1.45;0.80;;;14.00;99.90;;;;;;1933050;72;22114;-80
2022/10/01 14:26:02;;;;;;;0.75;0.70;;;14.10;99.90;;;;;;1893585;75;21510;-79
2022/10/01 14:31:46;;;;;;;1.00;0.90;;;14.00;99.90;;;;;;1948504;72;22091;-77
2022/10/01 14:37:30;;;;;;;1.27;1.00;;;14.10;99.90;;;;;;1933817;72;22137;-77
2022/10/01 14:43:02;;;;;;;3.70;2.47;;;14.10;99.90;;;;;;1934768;72;22208;-77
2022/10/01 14:45:56;;;;;;;1.80;1.52;;;14.10;99.90;;;;;;1893248;75;21160;-79
2022/10/01 14:48:57;;;;;;;2.17;1.67;;;14.00;99.90;;;;;;1878635;75;21043;-77
2022/10/01 14:51:55;;;;;;;1.50;1.40;;;14.00;99.90;;;;;;1893983;75;21136;-76
2022/10/01 14:54:51;;;;;;;3.70;2.20;;;14.10;99.90;;;;;;1895851;75;21395;-76
2022/10/01 15:00:23;;;;;;;4.00;3.00;;;14.30;99.90;;;;;;1929635;72;22578;-78
2022/10/01 15:03:15;;;;;;;5.28;3.65;;;14.30;99.90;;;;;;1901718;73;21099;-77
2022/10/01 15:06:11;;;;;;;8.00;6.10;;;14.40;99.90;;;;;;1907666;75;21138;-78
2022/10/01 15:09:13;;;;;;;4.70;2.30;;;14.50;99.90;;;;;;1912457;74;21141;-77
2022/10/01 15:12:09;;;;;;;3.50;2.20;;;14.50;99.90;;;;;;1914509;74;21180;-78
2022/10/01 15:15:01;;;;;;;4.47;2.47;;;14.50;99.90;;;;;;1900805;75;21098;-77
2022/10/01 15:20:34;;;;;;;2.62;1.90;;;14.60;99.90;;;;;;1942027;72;22479;-78
2022/10/01 15:23:30;;;;;;;2.00;1.80;;;14.50;99.90;;;;;;1900311;75;21168;-76
2022/10/01 15:26:26;;;;;;;3.05;2.75;;;14.50;99.90;;;;;;1894865;74;21150;-77
2022/10/01 15:32:34;;;;;;;3.58;2.65;;;14.40;99.90;;;;;;1925187;73;22295;-78
2022/10/01 15:38:10;;;;;;;4.45;3.67;;;14.20;99.90;;;;;;1931225;72;22325;-76
2022/10/01 15:41:20;;;;;;;4.35;3.00;;;14.10;99.90;;;;;;1908036;75;21049;-77
2022/10/01 15:46:59;;;;;;;4.08;3.30;;;14.10;99.90;;;;;;1939449;72;22158;-78
2022/10/01 15:50:05;;;;;;;5.47;4.17;;;14.10;99.90;;;;;;1887678;75;21189;-76
2022/10/01 15:53:02;;;;;;;4.45;3.80;;;14.00;99.90;;;;;;1882294;75;21052;-76
2022/10/01 15:55:57;;;;;;;3.58;3.27;;;14.00;99.90;;;;;;1889572;75;21142;-77
2022/10/01 15:58:54;;;;;;;4.70;3.90;;;14.00;99.90;;;;;;1887156;75;21063;-87
2022/10/01 16:04:38;;;;;;;3.15;2.70;;;14.00;99.90;;;;;;1928804;72;22256;-88
2022/10/01 16:07:34;;;;;;;4.70;3.47;;;14.00;99.90;;;;;;1889484;75;21164;-87
2022/10/01 16:10:40;;;;;;;5.15;3.67;;;14.00;99.90;;;;;;1889344;75;21112;-87
2022/10/01 16:13:43;;;;;;;6.03;4.35;;;13.90;99.90;;;;;;1902783;74;21130;-87
2022/10/01 16:19:31;;;;;;;3.75;3.20;;;13.80;99.90;;;;;;1947257;72;22171;-87
2022/10/01 16:22:25;;;;;;;3.65;3.20;;;13.80;99.90;;;;;;1925963;73;21536;-89
2022/10/01 16:28:34;;;;;;;4.37;2.87;;;13.70;99.90;;;;;;1937853;72;22169;-88
2022/10/01 16:31:30;;;;;;;3.33;3.00;;;13.70;99.90;;;;;;1892360;75;21038;-88
2022/10/01 16:34:28;;;;;;;3.95;2.85;;;13.70;99.90;;;;;;1898001;75;21082;-87
2022/10/01 16:43:19;;;;;;;3.95;3.05;;;13.70;99.90;;;;;;1939256;72;22305;-88
2022/10/01 16:46:28;;;;;;;3.77;2.95;;;13.70;99.90;;;;;;1900922;73;21104;-88
2022/10/01 16:49:26;;;;;;;4.80;3.87;;;13.70;99.90;;;;;;1905207;75;21083;-86
2022/10/01 16:52:18;;;;;;;5.37;3.95;;;13.60;99.90;;;;;;1870677;75;21054;-87
2022/10/01 16:58:03;;;;;;;6.97;5.00;;;13.70;99.90;;;;;;1964919;72;23099;-89
2022/10/01 17:00:54;;;;;;;7.50;5.42;;;13.70;99.90;;;;;;1926862;73;21106;-88
2022/10/01 17:03:49;;;;;;;6.47;5.20;;;13.70;99.90;;;;;;1917365;73;21044;-88
2022/10/01 17:06:41;;;;;;;7.40;5.40;;;13.60;99.90;;;;;;1917161;73;21111;-89
2022/10/01 17:09:33;;;;;;;6.00;4.87;;;13.70;99.90;;;;;;1917731;74;21183;-88
2022/10/01 17:12:25;;;;;;;5.83;4.90;;;13.70;99.90;;;;;;1924235;73;21055;-88
2022/10/01 17:15:25;;;;;;;6.35;5.33;;;13.60;99.90;;;;;;1917850;73;21054;-87
2022/10/01 17:18:16;;;;;;;6.95;4.30;;;13.60;99.90;;;;;;1936737;73;21030;-88
2022/10/01 17:21:10;;;;;;;8.05;4.12;;;13.60;99.90;;;;;;1918880;73;21134;-87
2022/10/01 17:24:01;;;;;;;4.97;4.10;;;13.60;99.90;;;;;;1917485;73;21119;-87